Portada
METAR-TAF:

METAR-TAF

Aeroports :

Dübendorf, Suïssa

latitud: 47-23-55N, longitud: 8-38-53E, altitud: 448 m

Observació

L'informe es va fer fa 22 minuts, a les 20:20 UTC
Vent 4 kt del Nord-Est
Temperatura 18°C
Humitat 45%
Pressió 1018 hPa
Visibilitat 10 km o més

METAR: LSMD 012020Z AUTO 05004KT 9999NDV NCD 18/06 Q1018 RMK

Hora: 22:42 (20:42 UTC)


TAF: manca

Observacions i pronòstics meteorològics de més de 4000 aeroports (METAR i TAF).

Les estacions disponibles són els punts grocs i vermells al mapa.

Posi el ratolí al punt desitjat per veure el nom de l'estació.

Feu clic per veure les observacions i els pronòstics meteorològics.

Per canviar el mapa: feu clic els botons verds amb una creu de color negre per apropar; al botó verd amb un guió per allunyar la imatge; o en les fletxes verdes per a mapes adjacents.


METAR-TAF: